createdAt,value
2022-12-26T00:00:44.169Z,11.5714
2022-12-26T00:01:44.050Z,11.5714
2022-12-26T00:02:44.171Z,11.5714
2022-12-26T00:03:44.273Z,11.5714
2022-12-26T00:04:48.526Z,11.5714
2022-12-26T00:05:44.188Z,11.5714
2022-12-26T00:06:44.228Z,11.6429
2022-12-26T00:07:44.263Z,11.6429
2022-12-26T00:08:44.302Z,11.6429
2022-12-26T00:09:44.337Z,11.6429
2022-12-26T00:10:44.366Z,11.6429
2022-12-26T00:11:44.407Z,11.6429
2022-12-26T00:12:44.443Z,11.6429
2022-12-26T00:13:44.529Z,11.6429
2022-12-26T00:14:44.560Z,11.6429
2022-12-26T00:15:44.563Z,11.6429
2022-12-26T00:16:44.689Z,11.6429
2022-12-26T00:17:44.626Z,11.6429
2022-12-26T00:18:44.679Z,11.6429
2022-12-26T00:19:44.730Z,11.5714
2022-12-26T00:20:44.732Z,11.6429
2022-12-26T00:21:44.766Z,11.6429
2022-12-26T00:22:44.786Z,11.5714
2022-12-26T00:23:44.825Z,11.5714
2022-12-26T00:24:44.879Z,11.5714
2022-12-26T00:25:44.908Z,11.5714
2022-12-26T00:26:44.932Z,11.5714
2022-12-26T00:27:44.969Z,11.5714
2022-12-26T00:28:45.024Z,11.5714
2022-12-26T00:29:45.057Z,11.5714
2022-12-26T00:30:45.094Z,11.5714
2022-12-26T00:31:45.161Z,11.5714
2022-12-26T00:32:45.175Z,11.6429
2022-12-26T00:33:45.224Z,11.6429
2022-12-26T00:34:45.243Z,11.6429
2022-12-26T00:35:45.267Z,11.6429
2022-12-26T00:36:45.317Z,11.6429
2022-12-26T00:37:45.354Z,11.6429
2022-12-26T00:38:45.392Z,11.6429
2022-12-26T00:39:45.423Z,11.6429
2022-12-26T00:40:45.473Z,11.6429
2022-12-26T00:41:45.503Z,11.6429
2022-12-26T00:42:45.547Z,11.6429
2022-12-26T00:43:45.581Z,11.6429
2022-12-26T00:44:45.597Z,11.6429
2022-12-26T00:45:45.655Z,11.6429
2022-12-26T00:46:45.704Z,11.6429
2022-12-26T00:47:45.730Z,11.6429
2022-12-26T00:48:45.772Z,11.6429
2022-12-26T00:50:14.018Z,11.6429
2022-12-26T00:50:45.845Z,11.6429
2022-12-26T00:51:45.888Z,11.6429
2022-12-26T00:52:45.910Z,11.6429
2022-12-26T00:53:45.959Z,11.6429
2022-12-26T00:54:45.994Z,11.6429
2022-12-26T00:55:46.026Z,11.6429
2022-12-26T00:56:46.061Z,11.6429
2022-12-26T00:57:46.097Z,11.7143
2022-12-26T00:58:46.131Z,11.7143
2022-12-26T00:59:46.168Z,11.7143
2022-12-26T01:00:46.240Z,11.7143
2022-12-26T01:01:46.462Z,11.7143
2022-12-26T01:02:46.367Z,11.7143
2022-12-26T01:03:46.311Z,11.7143
2022-12-26T01:04:46.345Z,11.7143
2022-12-26T01:05:46.370Z,11.7143
2022-12-26T01:06:46.392Z,11.7143
2022-12-26T01:08:20.509Z,11.7143
2022-12-26T01:08:46.489Z,11.7143
2022-12-26T01:09:46.514Z,11.7143
2022-12-26T01:10:46.553Z,11.7857
2022-12-26T01:11:46.587Z,11.7857
2022-12-26T01:12:46.610Z,11.7857
2022-12-26T01:13:46.647Z,11.7857
2022-12-26T01:14:46.692Z,11.7857
2022-12-26T01:15:46.722Z,11.7857
2022-12-26T01:16:46.934Z,11.7857
2022-12-26T01:17:46.793Z,11.7857
2022-12-26T01:18:46.826Z,11.7857
2022-12-26T01:19:46.869Z,11.7857
2022-12-26T01:20:46.913Z,11.7857
2022-12-26T01:21:46.936Z,11.7857
2022-12-26T01:22:46.970Z,11.7857
2022-12-26T01:23:47.004Z,11.7857
2022-12-26T01:24:47.044Z,11.7857
2022-12-26T01:26:16.831Z,11.7857
2022-12-26T01:26:47.109Z,11.7857
2022-12-26T01:27:47.147Z,11.7857
2022-12-26T01:28:47.183Z,11.7857
2022-12-26T01:29:47.225Z,11.7857
2022-12-26T01:30:47.248Z,11.7857
2022-12-26T01:31:47.419Z,11.7857
2022-12-26T01:32:47.332Z,11.7857
2022-12-26T01:33:47.422Z,11.7857
2022-12-26T01:34:47.414Z,11.7857
2022-12-26T01:35:47.434Z,11.7857
2022-12-26T01:36:47.468Z,11.7857
2022-12-26T01:37:47.498Z,11.7857
2022-12-26T01:38:47.555Z,11.7857
2022-12-26T01:39:47.574Z,11.8571
2022-12-26T01:40:47.594Z,11.7857
2022-12-26T01:41:47.643Z,11.7857
2022-12-26T01:42:47.671Z,11.8571
2022-12-26T01:43:47.716Z,11.7857
2022-12-26T01:44:47.750Z,11.7857
2022-12-26T01:45:47.847Z,11.7857
2022-12-26T01:46:47.813Z,11.7857
2022-12-26T01:47:47.844Z,11.7143
2022-12-26T01:48:47.896Z,11.7143
2022-12-26T01:49:47.910Z,11.7143
2022-12-26T01:50:47.938Z,11.7143
2022-12-26T01:51:47.978Z,11.7143
2022-12-26T01:52:48.011Z,11.7143
2022-12-26T01:53:48.045Z,11.7143
2022-12-26T01:54:48.099Z,11.7143
2022-12-26T01:55:48.124Z,11.7143
2022-12-26T01:56:48.164Z,11.7143
2022-12-26T01:57:48.187Z,11.7143
2022-12-26T01:58:48.226Z,11.7143
2022-12-26T01:59:48.254Z,11.6429
2022-12-26T02:00:48.328Z,11.6429
2022-12-26T02:01:48.412Z,11.6429
2022-12-26T02:02:48.433Z,11.6429
2022-12-26T02:03:48.393Z,11.6429
2022-12-26T02:04:48.429Z,11.6429
2022-12-26T02:05:48.478Z,11.6429
2022-12-26T02:06:48.497Z,11.6429
2022-12-26T02:07:48.545Z,11.6429
2022-12-26T02:08:48.569Z,11.7143
2022-12-26T02:09:48.601Z,11.7143
2022-12-26T02:10:48.642Z,11.7143
2022-12-26T02:11:48.710Z,11.7143
2022-12-26T02:12:48.705Z,11.7143
2022-12-26T02:13:48.741Z,11.7857
2022-12-26T02:14:48.772Z,11.7857
2022-12-26T02:15:48.833Z,11.7857
2022-12-26T02:16:48.892Z,11.7857
2022-12-26T02:17:48.891Z,11.7857
2022-12-26T02:18:48.922Z,11.8571
2022-12-26T02:19:48.958Z,11.8571
2022-12-26T02:20:49.009Z,11.8571
2022-12-26T02:21:49.059Z,11.8571
2022-12-26T02:22:49.084Z,11.8571
2022-12-26T02:23:49.128Z,11.8571
2022-12-26T02:24:49.152Z,11.9286
2022-12-26T02:25:49.196Z,11.9286
2022-12-26T02:26:49.233Z,11.9286
2022-12-26T02:27:49.255Z,11.9286
2022-12-26T02:28:49.287Z,11.9286
2022-12-26T02:29:49.325Z,12
2022-12-26T02:30:49.368Z,12
2022-12-26T02:31:49.436Z,12
2022-12-26T02:32:49.441Z,12
2022-12-26T02:33:49.488Z,12
2022-12-26T02:34:49.498Z,12
2022-12-26T02:35:49.577Z,12
2022-12-26T02:36:49.571Z,12
2022-12-26T02:37:49.621Z,12.0714
2022-12-26T02:38:49.645Z,12.0714
2022-12-26T02:39:49.698Z,12.0714
2022-12-26T02:40:49.703Z,12.0714
2022-12-26T02:41:49.741Z,12.0714
2022-12-26T02:42:49.766Z,12.0714
2022-12-26T02:43:49.807Z,12.0714
2022-12-26T02:44:49.879Z,12.1429
2022-12-26T02:45:49.917Z,12.1429
2022-12-26T02:46:49.926Z,12.1429
2022-12-26T02:47:49.958Z,12.1429
2022-12-26T02:48:49.993Z,12.1429
2022-12-26T02:49:50.042Z,12.1429
2022-12-26T02:50:50.068Z,12.1429
2022-12-26T02:51:50.099Z,12.1429
2022-12-26T02:52:50.143Z,12.1429
2022-12-26T02:53:50.196Z,12.1429
2022-12-26T02:54:50.220Z,12.0714
2022-12-26T02:55:50.254Z,12.1429
2022-12-26T02:56:50.314Z,12.1429
2022-12-26T02:57:50.328Z,12.1429
2022-12-26T02:58:50.368Z,12.1429
2022-12-26T02:59:53.817Z,12.1429
2022-12-26T03:00:50.459Z,12.1429
2022-12-26T03:01:50.679Z,12.1429
2022-12-26T03:02:50.701Z,12.1429
2022-12-26T03:03:50.548Z,12.1429
2022-12-26T03:04:50.564Z,12.1429
2022-12-26T03:05:50.591Z,12.1429
2022-12-26T03:06:50.630Z,12.1429
2022-12-26T03:07:50.678Z,12.1429
2022-12-26T03:08:50.695Z,12.1429
2022-12-26T03:09:50.731Z,12.1429
2022-12-26T03:10:50.769Z,12.1429
2022-12-26T03:11:50.809Z,12.1429
2022-12-26T03:12:50.829Z,12.1429
2022-12-26T03:13:50.864Z,12.2143
2022-12-26T03:14:50.915Z,12.2143
2022-12-26T03:15:50.941Z,12.2143
2022-12-26T03:16:51.013Z,12.2143
2022-12-26T03:17:51.019Z,12.2143
2022-12-26T03:18:58.151Z,12.2143
2022-12-26T03:19:51.090Z,12.2143
2022-12-26T03:20:51.121Z,12.2143
2022-12-26T03:21:51.143Z,12.2143
2022-12-26T03:22:51.203Z,12.2143
2022-12-26T03:23:51.229Z,12.2143
2022-12-26T03:24:51.277Z,12.2857
2022-12-26T03:25:51.349Z,12.2857
2022-12-26T03:26:51.336Z,12.2857
2022-12-26T03:27:51.365Z,12.2857
2022-12-26T03:28:51.407Z,12.2857
2022-12-26T03:29:51.443Z,12.2857
2022-12-26T03:30:51.565Z,12.2857
2022-12-26T03:31:51.508Z,12.2857
2022-12-26T03:32:51.558Z,12.2857
2022-12-26T03:33:51.567Z,12.2857
2022-12-26T03:34:51.596Z,12.2857
2022-12-26T03:35:51.634Z,12.2857
2022-12-26T03:36:51.677Z,12.2857
2022-12-26T03:37:51.706Z,12.2857
2022-12-26T03:38:51.745Z,12.2857
2022-12-26T03:39:51.789Z,12.2857
2022-12-26T03:40:51.823Z,12.2857
2022-12-26T03:41:51.859Z,12.2857
2022-12-26T03:42:51.896Z,12.2857
2022-12-26T03:43:51.936Z,12.3571
2022-12-26T03:44:54.045Z,12.3571
2022-12-26T03:45:52.093Z,12.3571
2022-12-26T03:46:52.036Z,12.3571
2022-12-26T03:47:52.093Z,12.3571
2022-12-26T03:48:52.102Z,12.3571
2022-12-26T03:49:52.143Z,12.3571
2022-12-26T03:50:52.177Z,12.3571
2022-12-26T03:51:52.219Z,12.3571
2022-12-26T03:52:52.273Z,12.3571
2022-12-26T03:53:52.288Z,12.3571
2022-12-26T03:54:52.326Z,12.3571
2022-12-26T03:55:52.365Z,12.3571
2022-12-26T03:56:52.412Z,12.4286
2022-12-26T03:57:52.451Z,12.4286
2022-12-26T03:58:52.481Z,12.4286
2022-12-26T03:59:52.639Z,12.4286
2022-12-26T04:00:52.559Z,12.4286
2022-12-26T04:01:52.680Z,12.4286
2022-12-26T04:02:52.615Z,12.4286
2022-12-26T04:03:52.696Z,12.4286
2022-12-26T04:04:52.696Z,12.4286
2022-12-26T04:05:52.729Z,12.4286
2022-12-26T04:06:52.765Z,12.4286
2022-12-26T04:07:56.654Z,12.4286
2022-12-26T04:08:52.824Z,12.4286
2022-12-26T04:09:52.866Z,12.4286
2022-12-26T04:10:52.901Z,12.4286
2022-12-26T04:11:52.927Z,12.4286
2022-12-26T04:12:52.972Z,12.4286
2022-12-26T04:13:53.010Z,12.4286
2022-12-26T04:14:53.040Z,12.4286
2022-12-26T04:15:53.179Z,12.4286
2022-12-26T04:16:53.120Z,12.4286
2022-12-26T04:17:53.156Z,12.4286
2022-12-26T04:18:53.185Z,12.4286
2022-12-26T04:19:53.221Z,12.4286
2022-12-26T04:20:53.252Z,12.4286
2022-12-26T04:21:53.284Z,12.4286
2022-12-26T04:22:53.317Z,12.3571
2022-12-26T04:23:53.365Z,12.3571
2022-12-26T04:24:53.407Z,12.3571
2022-12-26T04:25:53.444Z,12.3571
2022-12-26T04:26:53.478Z,12.3571
2022-12-26T04:27:53.508Z,12.3571
2022-12-26T04:28:53.542Z,12.3571
2022-12-26T04:29:53.591Z,12.3571
2022-12-26T04:30:53.695Z,12.3571
2022-12-26T04:31:53.668Z,12.3571
2022-12-26T04:32:53.699Z,12.3571
2022-12-26T04:33:53.753Z,12.3571
2022-12-26T04:34:53.763Z,12.3571
2022-12-26T04:35:53.812Z,12.3571
2022-12-26T04:36:53.847Z,12.3571
2022-12-26T04:37:53.879Z,12.3571
2022-12-26T04:38:53.919Z,12.3571
2022-12-26T04:39:53.955Z,12.3571
2022-12-26T04:40:53.982Z,12.3571
2022-12-26T04:41:54.031Z,12.4286
2022-12-26T04:42:54.067Z,12.3571
2022-12-26T04:43:54.099Z,12.4286
2022-12-26T04:44:54.122Z,12.4286
2022-12-26T04:45:54.281Z,12.3571
2022-12-26T04:46:54.298Z,12.4286
2022-12-26T04:47:54.232Z,12.4286
2022-12-26T04:48:54.279Z,12.3571
2022-12-26T04:49:54.304Z,12.3571
2022-12-26T04:50:54.338Z,12.3571
2022-12-26T04:51:54.388Z,12.3571
2022-12-26T04:52:54.446Z,12.3571
2022-12-26T04:53:54.458Z,12.4286
2022-12-26T04:54:54.485Z,12.3571
2022-12-26T04:55:54.522Z,12.3571
2022-12-26T04:56:54.555Z,12.4286
2022-12-26T04:57:54.604Z,12.3571
2022-12-26T04:58:54.640Z,12.4286
2022-12-26T04:59:54.672Z,12.3571
2022-12-26T05:00:54.737Z,12.3571
2022-12-26T05:01:54.902Z,12.3571
2022-12-26T05:02:54.916Z,12.3571
2022-12-26T05:03:54.913Z,12.3571
2022-12-26T05:04:54.853Z,12.4286
2022-12-26T05:05:54.890Z,12.4286
2022-12-26T05:06:54.926Z,12.3571
2022-12-26T05:07:54.962Z,12.3571
2022-12-26T05:08:54.988Z,12.4286
2022-12-26T05:09:55.056Z,12.4286
2022-12-26T05:10:55.051Z,12.3571
2022-12-26T05:11:55.091Z,12.3571
2022-12-26T05:12:55.139Z,12.3571
2022-12-26T05:13:55.164Z,12.3571
2022-12-26T05:14:55.187Z,12.3571
2022-12-26T05:15:55.283Z,12.3571
2022-12-26T05:16:55.254Z,12.3571
2022-12-26T05:17:55.295Z,12.3571
2022-12-26T05:18:55.331Z,12.3571
2022-12-26T05:19:55.374Z,12.3571
2022-12-26T05:20:55.403Z,12.3571
2022-12-26T05:21:55.453Z,12.3571
2022-12-26T05:22:55.484Z,12.3571
2022-12-26T05:23:55.505Z,12.2857
2022-12-26T05:24:55.557Z,12.2857
2022-12-26T05:25:55.602Z,12.2857
2022-12-26T05:26:55.634Z,12.2857
2022-12-26T05:27:55.716Z,12.2857
2022-12-26T05:28:55.703Z,12.2857
2022-12-26T05:29:55.730Z,12.2857
2022-12-26T05:30:55.801Z,12.2857
2022-12-26T05:31:55.868Z,12.2857
2022-12-26T05:32:55.845Z,12.2857
2022-12-26T05:33:55.875Z,12.2857
2022-12-26T05:34:55.904Z,12.2857
2022-12-26T05:35:55.953Z,12.2857
2022-12-26T05:36:55.991Z,12.2857
2022-12-26T05:37:56.020Z,12.2857
2022-12-26T05:38:56.061Z,12.2857
2022-12-26T05:39:56.081Z,12.2857
2022-12-26T05:40:56.134Z,12.2857
2022-12-26T05:41:56.165Z,12.2857
2022-12-26T05:42:56.194Z,12.2857
2022-12-26T05:43:56.227Z,12.2857
2022-12-26T05:44:56.260Z,12.2857
2022-12-26T05:45:56.302Z,12.2857
2022-12-26T05:46:56.375Z,12.2857
2022-12-26T05:47:56.356Z,12.2857
2022-12-26T05:48:56.394Z,12.2857
2022-12-26T05:49:56.446Z,12.2857
2022-12-26T05:50:56.472Z,12.2857
2022-12-26T05:51:56.516Z,12.2857
2022-12-26T05:52:56.549Z,12.2857
2022-12-26T05:53:56.582Z,12.2857
2022-12-26T05:54:56.616Z,12.2857
2022-12-26T05:55:56.651Z,12.2857
2022-12-26T05:56:56.682Z,12.2857
2022-12-26T05:57:56.720Z,12.2857
2022-12-26T05:58:56.754Z,12.2857
2022-12-26T05:59:56.788Z,12.2857
2022-12-26T06:00:56.828Z,12.2857
2022-12-26T06:01:57.012Z,12.3571
2022-12-26T06:02:56.963Z,12.2857
2022-12-26T06:03:57.027Z,12.3571
2022-12-26T06:04:56.958Z,12.3571
2022-12-26T06:05:56.990Z,12.3571
2022-12-26T06:06:57.027Z,12.3571
2022-12-26T06:07:57.096Z,12.3571
2022-12-26T06:08:57.096Z,12.3571
2022-12-26T06:09:57.126Z,12.3571
2022-12-26T06:10:57.174Z,12.3571
2022-12-26T06:11:57.232Z,12.3571
2022-12-26T06:12:57.252Z,12.3571
2022-12-26T06:13:57.316Z,12.3571
2022-12-26T06:14:57.313Z,12.3571
2022-12-26T06:15:57.399Z,12.4286
2022-12-26T06:16:57.372Z,12.4286
2022-12-26T06:17:57.410Z,12.4286
2022-12-26T06:18:57.446Z,12.4286
2022-12-26T06:19:57.486Z,12.4286
2022-12-26T06:20:57.520Z,12.4286
2022-12-26T06:21:57.543Z,12.5
2022-12-26T06:22:57.589Z,12.5
2022-12-26T06:23:57.612Z,12.5
2022-12-26T06:24:57.646Z,12.5
2022-12-26T06:25:57.690Z,12.5
2022-12-26T06:26:57.737Z,12.5
2022-12-26T06:27:57.756Z,12.5
2022-12-26T06:28:57.789Z,12.5
2022-12-26T06:29:57.814Z,12.5
2022-12-26T06:30:57.872Z,12.5
2022-12-26T06:31:57.919Z,12.5
2022-12-26T06:32:57.910Z,12.5
2022-12-26T06:33:57.945Z,12.5
2022-12-26T06:34:57.980Z,12.5
2022-12-26T06:35:58.011Z,12.5
2022-12-26T06:36:58.048Z,12.5
2022-12-26T06:37:58.082Z,12.5
2022-12-26T06:38:58.115Z,12.5
2022-12-26T06:39:58.161Z,12.5
2022-12-26T06:40:58.187Z,12.5
2022-12-26T06:41:58.219Z,12.5
2022-12-26T06:42:58.257Z,12.5
2022-12-26T06:43:58.287Z,12.5
2022-12-26T06:44:58.339Z,12.5
2022-12-26T06:45:58.368Z,12.5
2022-12-26T06:46:58.444Z,12.5
2022-12-26T06:47:58.424Z,12.5
2022-12-26T06:48:58.467Z,12.5
2022-12-26T06:49:58.499Z,12.5
2022-12-26T06:50:58.527Z,12.5
2022-12-26T06:51:58.560Z,12.5
2022-12-26T06:52:58.601Z,12.5
2022-12-26T06:53:58.627Z,12.5714
2022-12-26T06:54:58.665Z,12.5714
2022-12-26T06:55:58.693Z,12.5714
2022-12-26T06:56:58.733Z,12.5714
2022-12-26T06:57:58.769Z,12.5714
2022-12-26T06:58:58.802Z,12.5714
2022-12-26T06:59:58.848Z,12.5714
2022-12-26T07:00:58.980Z,12.5714
2022-12-26T07:01:59.004Z,12.5714
2022-12-26T07:02:59.024Z,12.5714
2022-12-26T07:03:58.991Z,12.5714
2022-12-26T07:04:59.026Z,12.5714
2022-12-26T07:05:59.075Z,12.5714
2022-12-26T07:06:59.117Z,12.5714
2022-12-26T07:07:59.136Z,12.5714
2022-12-26T07:08:59.185Z,12.5714
2022-12-26T07:09:59.205Z,12.5714
2022-12-26T07:10:59.235Z,12.6429
2022-12-26T07:11:59.280Z,12.5714
2022-12-26T07:12:59.303Z,12.5714
2022-12-26T07:13:59.354Z,12.5714
2022-12-26T07:15:01.535Z,12.6429
2022-12-26T07:15:59.450Z,12.6429
2022-12-26T07:16:59.450Z,12.6429
2022-12-26T07:17:59.478Z,12.6429
2022-12-26T07:18:59.532Z,12.6429
2022-12-26T07:19:59.541Z,12.5714
2022-12-26T07:20:59.588Z,12.5714
2022-12-26T07:21:59.615Z,12.5714
2022-12-26T07:22:59.652Z,12.5714
2022-12-26T07:23:59.676Z,12.5714
2022-12-26T07:24:59.723Z,12.6429
2022-12-26T07:25:59.768Z,12.5714
2022-12-26T07:26:59.793Z,12.5714
2022-12-26T07:27:59.815Z,12.5714
2022-12-26T07:28:59.843Z,12.5714
2022-12-26T07:29:59.882Z,12.5714
2022-12-26T07:30:59.926Z,12.5714
2022-12-26T07:32:00.105Z,12.5714
2022-12-26T07:33:00.008Z,12.5714
2022-12-26T07:34:00.054Z,12.5714
2022-12-26T07:35:00.112Z,12.5714
2022-12-26T07:36:00.123Z,12.5
2022-12-26T07:37:00.159Z,12.5
2022-12-26T07:38:00.190Z,12.5
2022-12-26T07:39:00.222Z,12.5
2022-12-26T07:40:00.308Z,12.5
2022-12-26T07:41:00.322Z,12.5
2022-12-26T07:42:00.345Z,12.5
2022-12-26T07:43:00.370Z,12.5
2022-12-26T07:44:00.411Z,12.5
2022-12-26T07:45:00.452Z,12.5
2022-12-26T07:46:00.543Z,12.4286
2022-12-26T07:47:00.546Z,12.4286
2022-12-26T07:48:00.565Z,12.4286
2022-12-26T07:49:00.575Z,12.4286
2022-12-26T07:50:00.608Z,12.4286
2022-12-26T07:51:00.647Z,12.4286
2022-12-26T07:52:00.688Z,12.4286
2022-12-26T07:53:00.719Z,12.4286
2022-12-26T07:54:03.172Z,12.4286
2022-12-26T07:55:00.812Z,12.4286
2022-12-26T07:56:00.817Z,12.4286
2022-12-26T07:57:29.663Z,12.4286
2022-12-26T07:58:00.917Z,12.4286
2022-12-26T07:59:00.927Z,12.4286
2022-12-26T08:00:00.960Z,12.5
2022-12-26T08:01:01.095Z,12.5
2022-12-26T08:02:01.245Z,12.5
2022-12-26T08:03:06.919Z,12.5
2022-12-26T08:04:01.189Z,12.5
2022-12-26T08:05:01.145Z,12.5
2022-12-26T08:06:01.169Z,12.5
2022-12-26T08:07:01.211Z,12.5714
2022-12-26T08:08:01.247Z,12.5714
2022-12-26T08:09:01.284Z,12.5714
2022-12-26T08:10:01.334Z,12.5714
2022-12-26T08:11:01.340Z,12.5714
2022-12-26T08:12:01.374Z,12.5714
2022-12-26T08:13:01.407Z,12.5714
2022-12-26T08:14:01.440Z,12.5714
2022-12-26T08:15:01.463Z,12.5714
2022-12-26T08:16:01.524Z,12.5714
2022-12-26T08:17:01.581Z,12.5714
2022-12-26T08:18:01.549Z,12.5714
2022-12-26T08:19:01.584Z,12.5714
2022-12-26T08:20:01.661Z,12.5714
2022-12-26T08:21:01.655Z,12.5714
2022-12-26T08:22:01.682Z,12.5714
2022-12-26T08:23:01.719Z,12.5714
2022-12-26T08:24:01.763Z,12.5714
2022-12-26T08:25:01.833Z,12.5714
2022-12-26T08:26:01.821Z,12.5
2022-12-26T08:27:01.876Z,12.5
2022-12-26T08:28:01.872Z,12.5
2022-12-26T08:29:01.904Z,12.5
2022-12-26T08:30:01.949Z,12.5
2022-12-26T08:31:01.979Z,12.5
2022-12-26T08:32:02.019Z,12.5
2022-12-26T08:33:02.047Z,12.5
2022-12-26T08:34:02.082Z,12.5
2022-12-26T08:35:02.113Z,12.5
2022-12-26T08:36:02.224Z,12.5
2022-12-26T08:37:02.183Z,12.5
2022-12-26T08:38:02.251Z,12.4286
2022-12-26T08:39:02.232Z,12.4286
2022-12-26T08:40:02.275Z,12.4286
2022-12-26T08:41:02.312Z,12.4286
2022-12-26T08:42:02.369Z,12.4286
2022-12-26T08:43:29.901Z,12.4286
2022-12-26T08:44:27.945Z,12.4286
2022-12-26T08:45:02.462Z,12.4286
2022-12-26T08:46:02.539Z,12.4286
2022-12-26T08:47:02.542Z,12.4286
2022-12-26T08:48:02.565Z,12.4286
2022-12-26T08:49:02.605Z,12.4286
2022-12-26T08:50:02.643Z,12.4286
2022-12-26T08:51:02.684Z,12.5
2022-12-26T08:52:02.710Z,12.5
2022-12-26T08:53:02.756Z,12.5
2022-12-26T08:54:02.803Z,12.5
2022-12-26T08:55:02.796Z,12.5
2022-12-26T08:56:02.840Z,12.5
2022-12-26T08:57:02.862Z,12.5
2022-12-26T08:58:02.953Z,12.5
2022-12-26T08:59:02.946Z,12.5
2022-12-26T09:00:02.966Z,12.5
2022-12-26T09:01:03.025Z,12.5
2022-12-26T09:02:03.210Z,12.5
2022-12-26T09:03:03.129Z,12.5
2022-12-26T09:04:03.131Z,12.5
2022-12-26T09:05:03.159Z,12.5
2022-12-26T09:06:06.261Z,12.5
2022-12-26T09:07:03.225Z,12.5
2022-12-26T09:08:03.255Z,12.5
2022-12-26T09:09:03.289Z,12.5
2022-12-26T09:10:03.331Z,12.5
2022-12-26T09:11:03.372Z,12.5
2022-12-26T09:12:03.401Z,12.5
2022-12-26T09:13:03.435Z,12.5714
2022-12-26T09:14:03.472Z,12.5714
2022-12-26T09:15:03.493Z,12.5714
2022-12-26T09:16:03.539Z,12.5714
2022-12-26T09:17:03.610Z,12.5714
2022-12-26T09:18:03.607Z,12.6429
2022-12-26T09:19:03.654Z,12.6429
2022-12-26T09:20:03.683Z,12.6429
2022-12-26T09:21:03.736Z,12.6429
2022-12-26T09:22:03.760Z,12.7143
2022-12-26T09:23:03.789Z,12.7143
2022-12-26T09:24:03.835Z,12.7143
2022-12-26T09:25:03.867Z,12.7143
2022-12-26T09:26:03.901Z,12.7857
2022-12-26T09:27:03.917Z,12.7857
2022-12-26T09:28:03.957Z,12.7857
2022-12-26T09:29:03.989Z,12.7857
2022-12-26T09:30:04.015Z,12.7857
2022-12-26T09:31:04.124Z,12.7857
2022-12-26T09:32:04.083Z,12.7857
2022-12-26T09:33:04.153Z,12.8571
2022-12-26T09:34:04.151Z,12.8571
2022-12-26T09:35:04.190Z,12.8571
2022-12-26T09:36:08.268Z,12.8571
2022-12-26T09:37:04.245Z,12.8571
2022-12-26T09:38:04.305Z,12.8571
2022-12-26T09:39:04.319Z,12.8571
2022-12-26T09:40:04.365Z,12.8571
2022-12-26T09:41:04.403Z,12.8571
2022-12-26T09:42:04.431Z,12.8571
2022-12-26T09:43:04.461Z,12.8571
2022-12-26T09:44:04.496Z,12.9286
2022-12-26T09:45:04.553Z,12.9286
2022-12-26T09:46:05.342Z,12.9286
2022-12-26T09:47:05.343Z,12.9286
2022-12-26T09:48:05.381Z,12.9286
2022-12-26T09:49:05.429Z,12.9286
2022-12-26T09:50:05.450Z,13
2022-12-26T09:51:05.494Z,13
2022-12-26T09:52:05.541Z,13
2022-12-26T09:53:05.562Z,13
2022-12-26T09:54:05.600Z,13
2022-12-26T09:55:05.639Z,13.0714
2022-12-26T09:56:05.666Z,13.0714
2022-12-26T09:57:09.880Z,13.1429
2022-12-26T09:58:05.745Z,13.1429
2022-12-26T09:59:05.773Z,13.1429
2022-12-26T10:00:05.798Z,13.1429
2022-12-26T10:01:05.852Z,13.1429
2022-12-26T10:02:05.915Z,13.1429
2022-12-26T10:03:05.901Z,13.1429
2022-12-26T10:04:06.008Z,13.1429
2022-12-26T10:05:06.035Z,13.1429
2022-12-26T10:06:06.006Z,13.1429
2022-12-26T10:07:06.032Z,13.1429
2022-12-26T10:08:06.078Z,13.1429
2022-12-26T10:09:06.109Z,13.1429
2022-12-26T10:10:06.140Z,13.1429
2022-12-26T10:11:06.180Z,13.1429
2022-12-26T10:12:06.229Z,13.2143
2022-12-26T10:13:06.260Z,13.2143
2022-12-26T10:14:06.291Z,13.2143
2022-12-26T10:15:06.346Z,13.2143
2022-12-26T10:16:06.378Z,13.2143
2022-12-26T10:17:06.380Z,13.2143
2022-12-26T10:18:06.411Z,13.2143
2022-12-26T10:19:06.457Z,13.2143
2022-12-26T10:20:06.478Z,13.2143
2022-12-26T10:21:06.538Z,13.2143
2022-12-26T10:22:06.541Z,13.2143
2022-12-26T10:23:06.575Z,13.2143
2022-12-26T10:24:06.611Z,13.2143
2022-12-26T10:25:06.644Z,13.2143
2022-12-26T10:26:06.697Z,13.2143
2022-12-26T10:27:06.725Z,13.1429
2022-12-26T10:28:06.750Z,13.1429
2022-12-26T10:29:06.796Z,13.1429
2022-12-26T10:30:06.805Z,13.1429
2022-12-26T10:31:06.870Z,13.1429
2022-12-26T10:32:06.871Z,13.1429
2022-12-26T10:33:06.907Z,13.1429
2022-12-26T10:34:06.937Z,13.1429
2022-12-26T10:35:06.967Z,13.0714
2022-12-26T10:36:07.006Z,13.0714
2022-12-26T10:37:07.041Z,13.0714
2022-12-26T10:38:07.080Z,13.0714
2022-12-26T10:39:07.119Z,13.0714
2022-12-26T10:40:07.159Z,13.0714
2022-12-26T10:41:07.189Z,13.0714
2022-12-26T10:42:07.231Z,13
2022-12-26T10:43:07.252Z,13
2022-12-26T10:44:07.300Z,13
2022-12-26T10:45:07.323Z,13
2022-12-26T10:46:07.412Z,13
2022-12-26T10:47:07.391Z,13
2022-12-26T10:48:07.416Z,13
2022-12-26T10:49:07.454Z,13
2022-12-26T10:50:07.484Z,13
2022-12-26T10:51:07.513Z,13
2022-12-26T10:52:07.550Z,13
2022-12-26T10:53:07.582Z,13
2022-12-26T10:54:07.607Z,13
2022-12-26T10:55:28.554Z,12.9286
2022-12-26T10:56:07.804Z,12.9286
2022-12-26T10:57:07.711Z,12.9286
2022-12-26T10:58:07.741Z,12.9286
2022-12-26T10:59:07.777Z,12.9286
2022-12-26T11:00:07.829Z,12.9286
2022-12-26T11:01:07.955Z,12.9286
2022-12-26T11:02:07.956Z,12.9286
2022-12-26T11:03:08.120Z,12.9286
2022-12-26T11:04:07.949Z,12.9286
2022-12-26T11:06:09.215Z,12.9286
2022-12-26T11:07:08.064Z,12.9286
2022-12-26T11:08:08.115Z,12.9286
2022-12-26T11:09:08.120Z,12.9286
2022-12-26T11:10:08.159Z,12.9286
2022-12-26T11:11:08.184Z,12.9286
2022-12-26T11:12:08.220Z,12.9286
2022-12-26T11:13:08.256Z,12.8571
2022-12-26T11:14:08.274Z,12.8571
2022-12-26T11:15:08.317Z,12.8571
2022-12-26T11:16:08.421Z,12.8571
2022-12-26T11:17:08.397Z,12.8571
2022-12-26T11:18:08.408Z,12.8571
2022-12-26T11:19:08.450Z,12.8571
2022-12-26T11:20:08.487Z,12.8571
2022-12-26T11:21:12.645Z,12.8571
2022-12-26T11:22:08.542Z,12.8571
2022-12-26T11:23:08.563Z,12.8571
2022-12-26T11:24:08.603Z,12.8571
2022-12-26T11:25:08.636Z,12.8571
2022-12-26T11:26:08.673Z,12.8571
2022-12-26T11:27:12.734Z,12.8571
2022-12-26T11:28:08.768Z,12.8571
2022-12-26T11:29:08.787Z,12.7857
2022-12-26T11:30:08.819Z,12.7857
2022-12-26T11:31:08.912Z,12.7857
2022-12-26T11:32:08.906Z,12.7857
2022-12-26T11:33:14.084Z,12.7857
2022-12-26T11:34:08.967Z,12.7857
2022-12-26T11:35:09.000Z,12.7857
2022-12-26T11:36:09.052Z,12.7857
2022-12-26T11:37:09.052Z,12.7857
2022-12-26T11:38:09.089Z,12.7857
2022-12-26T11:39:09.120Z,12.7857
2022-12-26T11:40:09.156Z,12.7857
2022-12-26T11:41:09.192Z,12.7857
2022-12-26T11:42:09.219Z,12.7857
2022-12-26T11:43:09.256Z,12.8571
2022-12-26T11:44:09.291Z,12.8571
2022-12-26T11:45:09.320Z,12.8571
2022-12-26T11:46:09.381Z,12.9286
2022-12-26T11:47:09.398Z,12.9286
2022-12-26T11:48:09.428Z,12.9286
2022-12-26T11:49:09.452Z,12.9286
2022-12-26T11:50:09.493Z,13
2022-12-26T11:51:09.526Z,13
2022-12-26T11:52:09.556Z,13
2022-12-26T11:53:09.590Z,13
2022-12-26T11:54:09.615Z,13.0714
2022-12-26T11:55:09.661Z,13.0714
2022-12-26T11:56:09.697Z,13.0714
2022-12-26T11:57:09.717Z,13.0714
2022-12-26T11:58:09.766Z,13.0714
2022-12-26T11:59:09.788Z,13.0714
2022-12-26T12:00:09.816Z,13.0714
2022-12-26T12:01:09.901Z,13.0714
2022-12-26T12:02:09.891Z,13.0714
2022-12-26T12:03:09.934Z,13.0714
2022-12-26T12:04:09.956Z,13.0714
2022-12-26T12:05:09.995Z,13.0714
2022-12-26T12:06:10.030Z,13.0714
2022-12-26T12:07:10.060Z,13.0714
2022-12-26T12:08:10.106Z,13
2022-12-26T12:09:10.124Z,13
2022-12-26T12:10:10.152Z,13
2022-12-26T12:11:10.188Z,13
2022-12-26T12:12:10.231Z,13
2022-12-26T12:13:10.261Z,13
2022-12-26T12:14:10.290Z,12.9286
2022-12-26T12:15:10.320Z,12.9286
2022-12-26T12:16:10.396Z,12.9286
2022-12-26T12:17:10.391Z,12.9286
2022-12-26T12:18:10.418Z,12.9286
2022-12-26T12:19:10.443Z,12.9286
2022-12-26T12:20:10.490Z,12.9286